sensor_id;sensor_type;location;lat;lon;timestamp;temperature;humidity
66740;DHT22;53653;52.188;8.602;2023-04-15T00:01:11;7.58;80.69
66740;DHT22;53653;52.188;8.602;2023-04-15T00:03:37;7.55;80.61
66740;DHT22;53653;52.188;8.602;2023-04-15T00:06:03;7.59;80.72
66740;DHT22;53653;52.188;8.602;2023-04-15T00:08:29;7.58;80.52
66740;DHT22;53653;52.188;8.602;2023-04-15T00:10:55;7.59;80.68
66740;DHT22;53653;52.188;8.602;2023-04-15T00:13:21;7.61;80.70
66740;DHT22;53653;52.188;8.602;2023-04-15T00:15:46;7.61;81.30
66740;DHT22;53653;52.188;8.602;2023-04-15T00:18:12;7.62;81.29
66740;DHT22;53653;52.188;8.602;2023-04-15T00:20:37;7.62;81.71
66740;DHT22;53653;52.188;8.602;2023-04-15T00:23:03;7.57;81.69
66740;DHT22;53653;52.188;8.602;2023-04-15T00:25:29;7.54;81.90
66740;DHT22;53653;52.188;8.602;2023-04-15T00:27:55;7.54;82.06
66740;DHT22;53653;52.188;8.602;2023-04-15T00:30:21;7.50;82.35
66740;DHT22;53653;52.188;8.602;2023-04-15T00:32:48;7.52;82.39
66740;DHT22;53653;52.188;8.602;2023-04-15T00:35:17;7.50;82.54
66740;DHT22;53653;52.188;8.602;2023-04-15T00:37:42;7.52;82.47
66740;DHT22;53653;52.188;8.602;2023-04-15T00:40:11;7.48;82.70
66740;DHT22;53653;52.188;8.602;2023-04-15T00:42:38;7.50;82.63
66740;DHT22;53653;52.188;8.602;2023-04-15T00:45:04;7.50;82.50
66740;DHT22;53653;52.188;8.602;2023-04-15T00:47:30;7.55;82.30
66740;DHT22;53653;52.188;8.602;2023-04-15T00:49:57;7.57;82.29
66740;DHT22;53653;52.188;8.602;2023-04-15T00:52:22;7.54;82.66
66740;DHT22;53653;52.188;8.602;2023-04-15T00:54:49;7.51;82.75
66740;DHT22;53653;52.188;8.602;2023-04-15T00:57:16;7.50;82.62
66740;DHT22;53653;52.188;8.602;2023-04-15T00:59:42;7.47;82.96
66740;DHT22;53653;52.188;8.602;2023-04-15T01:02:07;7.43;83.44
66740;DHT22;53653;52.188;8.602;2023-04-15T01:04:33;7.41;83.69
66740;DHT22;53653;52.188;8.602;2023-04-15T01:06:58;7.44;83.81
66740;DHT22;53653;52.188;8.602;2023-04-15T01:09:24;7.43;83.79
66740;DHT22;53653;52.188;8.602;2023-04-15T01:11:49;7.41;83.95
66740;DHT22;53653;52.188;8.602;2023-04-15T01:14:15;7.38;84.32
66740;DHT22;53653;52.188;8.602;2023-04-15T01:16:40;7.37;84.40
66740;DHT22;53653;52.188;8.602;2023-04-15T01:19:07;7.40;84.51
66740;DHT22;53653;52.188;8.602;2023-04-15T01:21:38;7.41;84.44
66740;DHT22;53653;52.188;8.602;2023-04-15T01:24:08;7.37;84.53
66740;DHT22;53653;52.188;8.602;2023-04-15T01:26:38;7.43;84.55
66740;DHT22;53653;52.188;8.602;2023-04-15T01:29:06;7.40;84.52
66740;DHT22;53653;52.188;8.602;2023-04-15T01:31:32;7.38;84.67
66740;DHT22;53653;52.188;8.602;2023-04-15T01:33:58;7.40;84.60
66740;DHT22;53653;52.188;8.602;2023-04-15T01:36:24;7.38;84.65
66740;DHT22;53653;52.188;8.602;2023-04-15T01:38:52;7.40;84.68
66740;DHT22;53653;52.188;8.602;2023-04-15T01:41:25;7.40;84.42
66740;DHT22;53653;52.188;8.602;2023-04-15T01:43:51;7.41;84.51
66740;DHT22;53653;52.188;8.602;2023-04-15T01:46:17;7.43;84.61
66740;DHT22;53653;52.188;8.602;2023-04-15T01:48:43;7.41;84.40
66740;DHT22;53653;52.188;8.602;2023-04-15T01:51:08;7.40;84.35
66740;DHT22;53653;52.188;8.602;2023-04-15T01:53:33;7.40;84.28
66740;DHT22;53653;52.188;8.602;2023-04-15T01:56:00;7.44;84.21
66740;DHT22;53653;52.188;8.602;2023-04-15T01:58:26;7.41;84.33
66740;DHT22;53653;52.188;8.602;2023-04-15T02:00:52;7.43;84.15
66740;DHT22;53653;52.188;8.602;2023-04-15T02:03:17;7.45;83.69
66740;DHT22;53653;52.188;8.602;2023-04-15T02:05:43;7.50;83.82
66740;DHT22;53653;52.188;8.602;2023-04-15T02:08:09;7.54;83.57
66740;DHT22;53653;52.188;8.602;2023-04-15T02:10:37;7.58;83.19
66740;DHT22;53653;52.188;8.602;2023-04-15T02:13:04;7.59;82.96
66740;DHT22;53653;52.188;8.602;2023-04-15T02:15:29;7.61;82.87
66740;DHT22;53653;52.188;8.602;2023-04-15T02:17:54;7.52;83.09
66740;DHT22;53653;52.188;8.602;2023-04-15T02:20:20;7.48;83.30
66740;DHT22;53653;52.188;8.602;2023-04-15T02:22:46;7.44;83.47
66740;DHT22;53653;52.188;8.602;2023-04-15T02:25:14;7.41;83.58
66740;DHT22;53653;52.188;8.602;2023-04-15T02:27:41;7.37;83.61
66740;DHT22;53653;52.188;8.602;2023-04-15T02:30:07;7.38;83.90
66740;DHT22;53653;52.188;8.602;2023-04-15T02:32:33;7.32;83.80
66740;DHT22;53653;52.188;8.602;2023-04-15T02:35:06;7.35;83.73
66740;DHT22;53653;52.188;8.602;2023-04-15T02:37:33;7.31;83.85
66740;DHT22;53653;52.188;8.602;2023-04-15T02:40:01;7.28;83.91
66740;DHT22;53653;52.188;8.602;2023-04-15T02:42:27;7.23;84.02
66740;DHT22;53653;52.188;8.602;2023-04-15T02:44:55;7.17;84.43
66740;DHT22;53653;52.188;8.602;2023-04-15T02:47:22;7.17;84.41
66740;DHT22;53653;52.188;8.602;2023-04-15T02:49:47;7.17;84.20
66740;DHT22;53653;52.188;8.602;2023-04-15T02:52:13;7.16;84.26
66740;DHT22;53653;52.188;8.602;2023-04-15T02:54:39;7.20;84.14
66740;DHT22;53653;52.188;8.602;2023-04-15T02:57:04;7.24;83.94
66740;DHT22;53653;52.188;8.602;2023-04-15T02:59:31;7.28;83.55
66740;DHT22;53653;52.188;8.602;2023-04-15T03:01:56;7.31;83.39
66740;DHT22;53653;52.188;8.602;2023-04-15T03:04:25;7.28;83.33
66740;DHT22;53653;52.188;8.602;2023-04-15T03:06:51;7.24;83.44
66740;DHT22;53653;52.188;8.602;2023-04-15T03:09:17;7.23;83.78
66740;DHT22;53653;52.188;8.602;2023-04-15T03:11:42;7.24;83.73
66740;DHT22;53653;52.188;8.602;2023-04-15T03:14:08;7.26;83.80
66740;DHT22;53653;52.188;8.602;2023-04-15T03:16:36;7.23;83.62
66740;DHT22;53653;52.188;8.602;2023-04-15T03:19:02;7.20;83.44
66740;DHT22;53653;52.188;8.602;2023-04-15T03:21:28;7.23;83.72
66740;DHT22;53653;52.188;8.602;2023-04-15T03:23:56;7.23;83.62
66740;DHT22;53653;52.188;8.602;2023-04-15T03:26:29;7.21;83.62
66740;DHT22;53653;52.188;8.602;2023-04-15T03:28:59;7.23;83.48
66740;DHT22;53653;52.188;8.602;2023-04-15T03:31:25;7.28;83.18
66740;DHT22;53653;52.188;8.602;2023-04-15T03:33:50;7.27;83.12
66740;DHT22;53653;52.188;8.602;2023-04-15T03:36:16;7.24;83.27
66740;DHT22;53653;52.188;8.602;2023-04-15T03:38:42;7.20;83.51
66740;DHT22;53653;52.188;8.602;2023-04-15T03:41:07;7.17;83.75
66740;DHT22;53653;52.188;8.602;2023-04-15T03:43:33;7.10;83.87
66740;DHT22;53653;52.188;8.602;2023-04-15T03:45:59;7.03;84.40
66740;DHT22;53653;52.188;8.602;2023-04-15T03:48:24;6.99;84.51
66740;DHT22;53653;52.188;8.602;2023-04-15T03:50:50;6.87;85.12
66740;DHT22;53653;52.188;8.602;2023-04-15T03:53:15;6.82;85.29
66740;DHT22;53653;52.188;8.602;2023-04-15T03:55:41;6.75;85.69
66740;DHT22;53653;52.188;8.602;2023-04-15T03:58:06;6.71;85.72
66740;DHT22;53653;52.188;8.602;2023-04-15T04:00:32;6.72;85.75
66740;DHT22;53653;52.188;8.602;2023-04-15T04:02:57;6.76;85.75
66740;DHT22;53653;52.188;8.602;2023-04-15T04:05:22;6.78;85.31
66740;DHT22;53653;52.188;8.602;2023-04-15T04:07:48;6.82;85.31
66740;DHT22;53653;52.188;8.602;2023-04-15T04:10:13;6.83;85.31
66740;DHT22;53653;52.188;8.602;2023-04-15T04:12:39;6.86;85.00
66740;DHT22;53653;52.188;8.602;2023-04-15T04:15:05;6.89;84.87
66740;DHT22;53653;52.188;8.602;2023-04-15T04:17:31;6.89;84.79
66740;DHT22;53653;52.188;8.602;2023-04-15T04:19:56;6.90;84.86
66740;DHT22;53653;52.188;8.602;2023-04-15T04:22:22;6.92;84.61
66740;DHT22;53653;52.188;8.602;2023-04-15T04:24:48;6.93;84.60
66740;DHT22;53653;52.188;8.602;2023-04-15T04:27:14;6.90;84.66
66740;DHT22;53653;52.188;8.602;2023-04-15T04:29:39;6.92;84.79
66740;DHT22;53653;52.188;8.602;2023-04-15T04:32:05;6.92;84.75
66740;DHT22;53653;52.188;8.602;2023-04-15T04:34:31;6.97;84.55
66740;DHT22;53653;52.188;8.602;2023-04-15T04:36:56;6.90;84.77
66740;DHT22;53653;52.188;8.602;2023-04-15T04:39:22;6.89;84.78
66740;DHT22;53653;52.188;8.602;2023-04-15T04:41:48;6.90;84.84
66740;DHT22;53653;52.188;8.602;2023-04-15T04:44:14;6.93;85.04
66740;DHT22;53653;52.188;8.602;2023-04-15T04:46:39;6.87;85.25
66740;DHT22;53653;52.188;8.602;2023-04-15T04:49:04;6.85;85.24
66740;DHT22;53653;52.188;8.602;2023-04-15T04:51:30;6.86;85.14
66740;DHT22;53653;52.188;8.602;2023-04-15T04:53:56;7.00;84.47
66740;DHT22;53653;52.188;8.602;2023-04-15T04:56:22;7.01;84.25
66740;DHT22;53653;52.188;8.602;2023-04-15T04:58:47;7.06;84.45
66740;DHT22;53653;52.188;8.602;2023-04-15T05:01:12;7.07;84.28
66740;DHT22;53653;52.188;8.602;2023-04-15T05:03:38;7.10;84.27
66740;DHT22;53653;52.188;8.602;2023-04-15T05:06:04;7.08;84.28
66740;DHT22;53653;52.188;8.602;2023-04-15T05:08:31;7.11;84.30
66740;DHT22;53653;52.188;8.602;2023-04-15T05:10:57;7.08;84.47
66740;DHT22;53653;52.188;8.602;2023-04-15T05:13:22;7.06;84.54
66740;DHT22;53653;52.188;8.602;2023-04-15T05:15:48;7.03;84.75
66740;DHT22;53653;52.188;8.602;2023-04-15T05:18:13;7.03;84.92
66740;DHT22;53653;52.188;8.602;2023-04-15T05:20:39;7.04;85.17
66740;DHT22;53653;52.188;8.602;2023-04-15T05:23:04;7.08;84.91
66740;DHT22;53653;52.188;8.602;2023-04-15T05:25:30;7.14;85.07
66740;DHT22;53653;52.188;8.602;2023-04-15T05:27:55;7.17;84.84
66740;DHT22;53653;52.188;8.602;2023-04-15T05:30:21;7.18;84.80
66740;DHT22;53653;52.188;8.602;2023-04-15T05:32:46;7.30;84.55
66740;DHT22;53653;52.188;8.602;2023-04-15T05:35:12;7.31;84.43
66740;DHT22;53653;52.188;8.602;2023-04-15T05:37:37;7.28;84.63
66740;DHT22;53653;52.188;8.602;2023-04-15T05:40:03;7.40;84.65
66740;DHT22;53653;52.188;8.602;2023-04-15T05:42:29;7.38;84.61
66740;DHT22;53653;52.188;8.602;2023-04-15T05:44:54;7.38;84.60
66740;DHT22;53653;52.188;8.602;2023-04-15T05:47:20;7.37;84.97
66740;DHT22;53653;52.188;8.602;2023-04-15T05:49:45;7.38;84.97
66740;DHT22;53653;52.188;8.602;2023-04-15T05:52:11;7.41;85.21
66740;DHT22;53653;52.188;8.602;2023-04-15T05:54:36;7.40;85.00
66740;DHT22;53653;52.188;8.602;2023-04-15T05:57:02;7.48;84.98
66740;DHT22;53653;52.188;8.602;2023-04-15T05:59:28;7.47;84.94
66740;DHT22;53653;52.188;8.602;2023-04-15T06:01:53;7.51;84.94
66740;DHT22;53653;52.188;8.602;2023-04-15T06:04:19;7.58;84.74
66740;DHT22;53653;52.188;8.602;2023-04-15T06:06:44;7.47;85.02
66740;DHT22;53653;52.188;8.602;2023-04-15T06:09:10;7.51;85.00
66740;DHT22;53653;52.188;8.602;2023-04-15T06:11:36;7.62;84.93
66740;DHT22;53653;52.188;8.602;2023-04-15T06:14:01;7.74;83.88
66740;DHT22;53653;52.188;8.602;2023-04-15T06:16:27;7.68;83.84
66740;DHT22;53653;52.188;8.602;2023-04-15T06:18:52;7.52;84.50
66740;DHT22;53653;52.188;8.602;2023-04-15T06:21:18;7.47;85.00
66740;DHT22;53653;52.188;8.602;2023-04-15T06:23:43;7.35;85.13
66740;DHT22;53653;52.188;8.602;2023-04-15T06:26:09;7.40;85.37
66740;DHT22;53653;52.188;8.602;2023-04-15T06:28:34;7.18;86.29
66740;DHT22;53653;52.188;8.602;2023-04-15T06:31:00;7.14;86.83
66740;DHT22;53653;52.188;8.602;2023-04-15T06:33:26;7.07;87.26
66740;DHT22;53653;52.188;8.602;2023-04-15T06:35:52;7.26;86.53
66740;DHT22;53653;52.188;8.602;2023-04-15T06:38:17;7.20;86.93
66740;DHT22;53653;52.188;8.602;2023-04-15T06:40:43;7.31;86.91
66740;DHT22;53653;52.188;8.602;2023-04-15T06:43:08;7.38;86.42
66740;DHT22;53653;52.188;8.602;2023-04-15T06:45:34;7.41;86.54
66740;DHT22;53653;52.188;8.602;2023-04-15T06:47:59;7.40;87.04
66740;DHT22;53653;52.188;8.602;2023-04-15T06:50:25;7.45;87.09
66740;DHT22;53653;52.188;8.602;2023-04-15T06:52:53;7.58;86.29
66740;DHT22;53653;52.188;8.602;2023-04-15T06:55:18;7.58;86.65
66740;DHT22;53653;52.188;8.602;2023-04-15T06:57:44;7.64;86.70
66740;DHT22;53653;52.188;8.602;2023-04-15T07:00:10;7.55;87.13
66740;DHT22;53653;52.188;8.602;2023-04-15T07:02:36;7.45;88.22
66740;DHT22;53653;52.188;8.602;2023-04-15T07:05:02;7.45;88.54
66740;DHT22;53653;52.188;8.602;2023-04-15T07:07:27;7.40;89.07
66740;DHT22;53653;52.188;8.602;2023-04-15T07:09:53;7.58;87.77
66740;DHT22;53653;52.188;8.602;2023-04-15T07:12:18;7.65;87.73
66740;DHT22;53653;52.188;8.602;2023-04-15T07:14:44;7.68;88.06
66740;DHT22;53653;52.188;8.602;2023-04-15T07:17:09;7.66;87.98
66740;DHT22;53653;52.188;8.602;2023-04-15T07:19:36;7.69;88.01
66740;DHT22;53653;52.188;8.602;2023-04-15T07:22:02;7.59;88.68
66740;DHT22;53653;52.188;8.602;2023-04-15T07:24:28;7.59;89.03
66740;DHT22;53653;52.188;8.602;2023-04-15T07:26:54;7.51;89.14
66740;DHT22;53653;52.188;8.602;2023-04-15T07:29:23;7.50;89.36
66740;DHT22;53653;52.188;8.602;2023-04-15T07:31:48;7.64;88.85
66740;DHT22;53653;52.188;8.602;2023-04-15T07:34:14;7.69;88.67
66740;DHT22;53653;52.188;8.602;2023-04-15T07:36:41;7.74;88.16
66740;DHT22;53653;52.188;8.602;2023-04-15T07:39:06;7.65;88.97
66740;DHT22;53653;52.188;8.602;2023-04-15T07:41:32;7.72;89.13
66740;DHT22;53653;52.188;8.602;2023-04-15T07:43:58;7.71;89.25
66740;DHT22;53653;52.188;8.602;2023-04-15T07:46:23;7.79;88.94
66740;DHT22;53653;52.188;8.602;2023-04-15T07:48:51;7.83;88.99
66740;DHT22;53653;52.188;8.602;2023-04-15T07:51:17;7.90;88.45
66740;DHT22;53653;52.188;8.602;2023-04-15T07:53:43;7.92;88.56
66740;DHT22;53653;52.188;8.602;2023-04-15T07:56:09;7.90;88.86
66740;DHT22;53653;52.188;8.602;2023-04-15T07:58:35;8.05;88.37
66740;DHT22;53653;52.188;8.602;2023-04-15T08:01:01;8.00;87.99
66740;DHT22;53653;52.188;8.602;2023-04-15T08:03:27;7.99;88.65
66740;DHT22;53653;52.188;8.602;2023-04-15T08:05:52;7.97;89.18
66740;DHT22;53653;52.188;8.602;2023-04-15T08:08:18;7.96;88.92
66740;DHT22;53653;52.188;8.602;2023-04-15T08:10:43;7.87;89.77
66740;DHT22;53653;52.188;8.602;2023-04-15T08:13:09;7.95;89.66
66740;DHT22;53653;52.188;8.602;2023-04-15T08:15:35;7.89;90.09
66740;DHT22;53653;52.188;8.602;2023-04-15T08:18:00;7.92;90.25
66740;DHT22;53653;52.188;8.602;2023-04-15T08:20:26;8.02;90.06
66740;DHT22;53653;52.188;8.602;2023-04-15T08:22:51;8.10;89.81
66740;DHT22;53653;52.188;8.602;2023-04-15T08:25:18;8.10;89.78
66740;DHT22;53653;52.188;8.602;2023-04-15T08:27:44;8.19;89.29
66740;DHT22;53653;52.188;8.602;2023-04-15T08:30:11;8.22;88.88
66740;DHT22;53653;52.188;8.602;2023-04-15T08:32:37;8.26;88.65
66740;DHT22;53653;52.188;8.602;2023-04-15T08:35:02;8.14;89.36
66740;DHT22;53653;52.188;8.602;2023-04-15T08:37:28;8.19;90.01
66740;DHT22;53653;52.188;8.602;2023-04-15T08:39:54;8.20;89.84
66740;DHT22;53653;52.188;8.602;2023-04-15T08:42:25;8.20;90.02
66740;DHT22;53653;52.188;8.602;2023-04-15T08:44:52;8.34;89.77
66740;DHT22;53653;52.188;8.602;2023-04-15T08:47:20;8.40;88.82
66740;DHT22;53653;52.188;8.602;2023-04-15T08:49:46;8.45;89.57
66740;DHT22;53653;52.188;8.602;2023-04-15T08:52:18;8.60;89.47
66740;DHT22;53653;52.188;8.602;2023-04-15T08:54:44;8.55;89.34
66740;DHT22;53653;52.188;8.602;2023-04-15T08:57:09;8.60;89.63
66740;DHT22;53653;52.188;8.602;2023-04-15T08:59:35;8.57;89.26
66740;DHT22;53653;52.188;8.602;2023-04-15T09:02:01;8.64;88.84
66740;DHT22;53653;52.188;8.602;2023-04-15T09:04:27;8.48;89.89
66740;DHT22;53653;52.188;8.602;2023-04-15T09:06:52;8.63;89.58
66740;DHT22;53653;52.188;8.602;2023-04-15T09:09:18;8.61;89.37
66740;DHT22;53653;52.188;8.602;2023-04-15T09:11:43;8.69;89.88
66740;DHT22;53653;52.188;8.602;2023-04-15T09:14:09;8.71;90.02
66740;DHT22;53653;52.188;8.602;2023-04-15T09:19:23;8.72;89.46
66740;DHT22;53653;52.188;8.602;2023-04-15T09:21:50;8.64;89.61
66740;DHT22;53653;52.188;8.602;2023-04-15T09:24:15;8.61;89.78
66740;DHT22;53653;52.188;8.602;2023-04-15T09:26:41;8.48;90.73
66740;DHT22;53653;52.188;8.602;2023-04-15T09:29:08;8.61;90.55
66740;DHT22;53653;52.188;8.602;2023-04-15T09:31:35;8.69;89.71
66740;DHT22;53653;52.188;8.602;2023-04-15T09:34:01;8.81;89.79
66740;DHT22;53653;52.188;8.602;2023-04-15T09:36:27;8.86;89.97
66740;DHT22;53653;52.188;8.602;2023-04-15T09:38:56;8.89;89.65
66740;DHT22;53653;52.188;8.602;2023-04-15T09:41:22;8.91;89.96
66740;DHT22;53653;52.188;8.602;2023-04-15T09:43:48;8.88;89.99
66740;DHT22;53653;52.188;8.602;2023-04-15T09:46:13;8.89;89.75
66740;DHT22;53653;52.188;8.602;2023-04-15T09:48:39;8.71;89.98
66740;DHT22;53653;52.188;8.602;2023-04-15T09:51:05;8.81;89.57
66740;DHT22;53653;52.188;8.602;2023-04-15T09:53:34;8.81;89.96
66740;DHT22;53653;52.188;8.602;2023-04-15T09:56:00;8.75;90.39
66740;DHT22;53653;52.188;8.602;2023-04-15T10:00:55;8.78;90.52
66740;DHT22;53653;52.188;8.602;2023-04-15T10:03:26;8.82;90.77
66740;DHT22;53653;52.188;8.602;2023-04-15T10:05:53;8.82;90.47
66740;DHT22;53653;52.188;8.602;2023-04-15T10:08:20;8.93;89.99
66740;DHT22;53653;52.188;8.602;2023-04-15T10:10:46;8.86;89.80
66740;DHT22;53653;52.188;8.602;2023-04-15T10:13:20;8.93;90.25
66740;DHT22;53653;52.188;8.602;2023-04-15T10:15:59;8.99;89.54
66740;DHT22;53653;52.188;8.602;2023-04-15T10:18:27;8.95;90.11
66740;DHT22;53653;52.188;8.602;2023-04-15T10:20:53;8.81;90.99
66740;DHT22;53653;52.188;8.602;2023-04-15T10:23:21;8.93;90.68
66740;DHT22;53653;52.188;8.602;2023-04-15T10:25:47;8.88;90.89
66740;DHT22;53653;52.188;8.602;2023-04-15T10:28:14;8.99;91.03
66740;DHT22;53653;52.188;8.602;2023-04-15T10:30:41;9.05;90.46
66740;DHT22;53653;52.188;8.602;2023-04-15T10:33:08;9.05;90.47
66740;DHT22;53653;52.188;8.602;2023-04-15T10:35:35;8.93;90.63
66740;DHT22;53653;52.188;8.602;2023-04-15T10:38:01;8.96;90.73
66740;DHT22;53653;52.188;8.602;2023-04-15T10:42:56;9.03;90.71
66740;DHT22;53653;52.188;8.602;2023-04-15T10:45:27;9.06;90.56
66740;DHT22;53653;52.188;8.602;2023-04-15T10:48:02;8.96;90.17
66740;DHT22;53653;52.188;8.602;2023-04-15T10:50:27;9.05;90.69
66740;DHT22;53653;52.188;8.602;2023-04-15T10:52:55;8.93;90.93
66740;DHT22;53653;52.188;8.602;2023-04-15T10:55:26;8.99;91.16
66740;DHT22;53653;52.188;8.602;2023-04-15T10:57:53;9.02;90.91
66740;DHT22;53653;52.188;8.602;2023-04-15T11:00:20;8.93;91.11
66740;DHT22;53653;52.188;8.602;2023-04-15T11:02:55;8.95;91.12
66740;DHT22;53653;52.188;8.602;2023-04-15T11:08:10;8.86;91.82
66740;DHT22;53653;52.188;8.602;2023-04-15T11:13:03;9.08;91.67
66740;DHT22;53653;52.188;8.602;2023-04-15T11:18:17;9.15;91.25
66740;DHT22;53653;52.188;8.602;2023-04-15T11:20:45;9.11;91.28
66740;DHT22;53653;52.188;8.602;2023-04-15T11:23:12;9.05;91.43
66740;DHT22;53653;52.188;8.602;2023-04-15T11:25:38;9.03;91.51
66740;DHT22;53653;52.188;8.602;2023-04-15T11:28:04;9.11;91.57
66740;DHT22;53653;52.188;8.602;2023-04-15T11:30:33;9.05;91.49
66740;DHT22;53653;52.188;8.602;2023-04-15T11:33:01;9.06;91.47
66740;DHT22;53653;52.188;8.602;2023-04-15T11:35:28;9.06;91.22
66740;DHT22;53653;52.188;8.602;2023-04-15T11:37:53;9.12;91.01
66740;DHT22;53653;52.188;8.602;2023-04-15T11:40:24;9.16;91.15
66740;DHT22;53653;52.188;8.602;2023-04-15T11:43:03;9.09;91.50
66740;DHT22;53653;52.188;8.602;2023-04-15T11:45:29;9.20;91.16
66740;DHT22;53653;52.188;8.602;2023-04-15T11:48:10;9.29;90.46
66740;DHT22;53653;52.188;8.602;2023-04-15T11:50:37;9.23;90.51
66740;DHT22;53653;52.188;8.602;2023-04-15T11:53:06;9.23;90.44
66740;DHT22;53653;52.188;8.602;2023-04-15T11:55:45;9.26;90.19
66740;DHT22;53653;52.188;8.602;2023-04-15T11:58:19;9.20;90.71
66740;DHT22;53653;52.188;8.602;2023-04-15T12:00:51;9.24;90.43
66740;DHT22;53653;52.188;8.602;2023-04-15T12:03:25;9.29;90.26
66740;DHT22;53653;52.188;8.602;2023-04-15T12:06:10;9.27;90.66
66740;DHT22;53653;52.188;8.602;2023-04-15T12:08:57;9.30;90.52
66740;DHT22;53653;52.188;8.602;2023-04-15T12:16:22;9.16;91.62
66740;DHT22;53653;52.188;8.602;2023-04-15T12:18:52;9.18;91.43
66740;DHT22;53653;52.188;8.602;2023-04-15T12:21:21;9.22;91.45
66740;DHT22;53653;52.188;8.602;2023-04-15T12:23:53;9.18;90.94
66740;DHT22;53653;52.188;8.602;2023-04-15T12:29:09;9.22;91.41
66740;DHT22;53653;52.188;8.602;2023-04-15T12:31:35;9.16;91.55
66740;DHT22;53653;52.188;8.602;2023-04-15T12:34:02;9.16;91.56
66740;DHT22;53653;52.188;8.602;2023-04-15T12:36:28;9.18;91.41
66740;DHT22;53653;52.188;8.602;2023-04-15T12:38:56;9.37;90.81
66740;DHT22;53653;52.188;8.602;2023-04-15T12:41:22;9.34;90.61
66740;DHT22;53653;52.188;8.602;2023-04-15T12:43:48;9.37;90.24
66740;DHT22;53653;52.188;8.602;2023-04-15T12:46:14;9.40;90.28
66740;DHT22;53653;52.188;8.602;2023-04-15T12:48:40;9.29;90.81
66740;DHT22;53653;52.188;8.602;2023-04-15T12:51:06;9.29;91.11
66740;DHT22;53653;52.188;8.602;2023-04-15T12:53:31;9.24;91.08
66740;DHT22;53653;52.188;8.602;2023-04-15T12:55:58;9.24;91.25
66740;DHT22;53653;52.188;8.602;2023-04-15T12:58:24;9.37;90.79
66740;DHT22;53653;52.188;8.602;2023-04-15T13:00:49;9.37;90.51
66740;DHT22;53653;52.188;8.602;2023-04-15T13:03:15;9.29;91.07
66740;DHT22;53653;52.188;8.602;2023-04-15T13:05:40;9.26;91.51
66740;DHT22;53653;52.188;8.602;2023-04-15T13:08:06;9.36;91.35
66740;DHT22;53653;52.188;8.602;2023-04-15T13:10:32;9.48;90.33
66740;DHT22;53653;52.188;8.602;2023-04-15T13:13:01;9.34;90.71
66740;DHT22;53653;52.188;8.602;2023-04-15T13:15:26;9.39;90.81
66740;DHT22;53653;52.188;8.602;2023-04-15T13:17:52;9.34;90.87
66740;DHT22;53653;52.188;8.602;2023-04-15T13:20:18;9.33;91.30
66740;DHT22;53653;52.188;8.602;2023-04-15T13:22:43;9.36;91.17
66740;DHT22;53653;52.188;8.602;2023-04-15T13:25:09;9.32;91.31
66740;DHT22;53653;52.188;8.602;2023-04-15T13:27:34;9.23;91.95
66740;DHT22;53653;52.188;8.602;2023-04-15T13:30:00;9.32;91.45
66740;DHT22;53653;52.188;8.602;2023-04-15T13:32:25;9.32;91.25
66740;DHT22;53653;52.188;8.602;2023-04-15T13:34:51;9.18;92.05
66740;DHT22;53653;52.188;8.602;2023-04-15T13:37:16;9.11;92.46
66740;DHT22;53653;52.188;8.602;2023-04-15T13:39:42;9.23;92.23
66740;DHT22;53653;52.188;8.602;2023-04-15T13:42:07;9.24;92.26
66740;DHT22;53653;52.188;8.602;2023-04-15T13:44:33;9.30;91.95
66740;DHT22;53653;52.188;8.602;2023-04-15T13:46:59;9.24;92.21
66740;DHT22;53653;52.188;8.602;2023-04-15T13:49:25;9.13;92.57
66740;DHT22;53653;52.188;8.602;2023-04-15T13:51:50;9.27;92.20
66740;DHT22;53653;52.188;8.602;2023-04-15T13:54:16;9.20;92.34
66740;DHT22;53653;52.188;8.602;2023-04-15T13:56:42;9.19;92.79
66740;DHT22;53653;52.188;8.602;2023-04-15T13:59:07;9.32;92.16
66740;DHT22;53653;52.188;8.602;2023-04-15T14:01:33;9.37;92.04
66740;DHT22;53653;52.188;8.602;2023-04-15T14:03:59;9.40;91.73
66740;DHT22;53653;52.188;8.602;2023-04-15T14:06:25;9.37;91.71
66740;DHT22;53653;52.188;8.602;2023-04-15T14:08:51;9.30;92.29
66740;DHT22;53653;52.188;8.602;2023-04-15T14:11:17;9.41;91.98
66740;DHT22;53653;52.188;8.602;2023-04-15T14:13:42;9.32;92.41
66740;DHT22;53653;52.188;8.602;2023-04-15T14:16:08;9.24;92.99
66740;DHT22;53653;52.188;8.602;2023-04-15T14:18:33;9.32;92.82
66740;DHT22;53653;52.188;8.602;2023-04-15T14:20:59;9.29;92.90
66740;DHT22;53653;52.188;8.602;2023-04-15T14:23:24;9.40;92.80
66740;DHT22;53653;52.188;8.602;2023-04-15T14:25:50;9.32;93.06
66740;DHT22;53653;52.188;8.602;2023-04-15T14:28:16;9.34;93.05
66740;DHT22;53653;52.188;8.602;2023-04-15T14:30:42;9.44;92.76
66740;DHT22;53653;52.188;8.602;2023-04-15T14:33:07;9.46;92.70
66740;DHT22;53653;52.188;8.602;2023-04-15T14:35:33;9.40;92.94
66740;DHT22;53653;52.188;8.602;2023-04-15T14:37:58;9.39;93.25
66740;DHT22;53653;52.188;8.602;2023-04-15T14:40:24;9.37;93.53
66740;DHT22;53653;52.188;8.602;2023-04-15T14:42:49;9.34;93.66
66740;DHT22;53653;52.188;8.602;2023-04-15T14:45:15;9.43;93.36
66740;DHT22;53653;52.188;8.602;2023-04-15T14:47:40;9.51;93.21
66740;DHT22;53653;52.188;8.602;2023-04-15T14:50:06;9.57;92.87
66740;DHT22;53653;52.188;8.602;2023-04-15T14:52:32;9.61;92.78
66740;DHT22;53653;52.188;8.602;2023-04-15T14:55:05;9.64;92.85
66740;DHT22;53653;52.188;8.602;2023-04-15T14:57:30;9.69;92.57
66740;DHT22;53653;52.188;8.602;2023-04-15T14:59:56;9.70;92.34
66740;DHT22;53653;52.188;8.602;2023-04-15T15:02:21;9.74;92.33
66740;DHT22;53653;52.188;8.602;2023-04-15T15:04:47;9.58;92.72
66740;DHT22;53653;52.188;8.602;2023-04-15T15:07:12;9.57;93.01
66740;DHT22;53653;52.188;8.602;2023-04-15T15:09:38;9.58;93.13
66740;DHT22;53653;52.188;8.602;2023-04-15T15:12:03;9.48;93.33
66740;DHT22;53653;52.188;8.602;2023-04-15T15:14:29;9.47;93.52
66740;DHT22;53653;52.188;8.602;2023-04-15T15:16:54;9.53;93.41
66740;DHT22;53653;52.188;8.602;2023-04-15T15:19:20;9.60;93.29
66740;DHT22;53653;52.188;8.602;2023-04-15T15:21:45;9.54;93.68
66740;DHT22;53653;52.188;8.602;2023-04-15T15:24:11;9.54;93.51
66740;DHT22;53653;52.188;8.602;2023-04-15T15:26:37;9.55;93.50
66740;DHT22;53653;52.188;8.602;2023-04-15T15:29:02;9.65;93.05
66740;DHT22;53653;52.188;8.602;2023-04-15T15:31:28;9.74;92.50
66740;DHT22;53653;52.188;8.602;2023-04-15T15:33:53;9.73;92.46
66740;DHT22;53653;52.188;8.602;2023-04-15T15:36:19;9.61;93.16
66740;DHT22;53653;52.188;8.602;2023-04-15T15:38:44;9.55;93.49
66740;DHT22;53653;52.188;8.602;2023-04-15T15:41:10;9.51;93.75
66740;DHT22;53653;52.188;8.602;2023-04-15T15:43:36;9.67;93.29
66740;DHT22;53653;52.188;8.602;2023-04-15T15:46:02;9.67;93.11
66740;DHT22;53653;52.188;8.602;2023-04-15T15:48:27;9.62;93.35
66740;DHT22;53653;52.188;8.602;2023-04-15T15:50:53;9.69;93.45
66740;DHT22;53653;52.188;8.602;2023-04-15T15:53:18;9.82;92.86
66740;DHT22;53653;52.188;8.602;2023-04-15T15:55:48;9.73;92.84
66740;DHT22;53653;52.188;8.602;2023-04-15T15:58:14;9.74;92.97
66740;DHT22;53653;52.188;8.602;2023-04-15T16:00:40;9.85;92.68
66740;DHT22;53653;52.188;8.602;2023-04-15T16:03:05;9.87;92.46